createdAt,value
2023-05-04T00:00:00.695Z,78.5
2023-05-04T00:01:06.966Z,78.5
2023-05-04T00:02:12.275Z,78.5
2023-05-04T00:03:17.572Z,78.5
2023-05-04T00:04:23.832Z,79.5
2023-05-04T00:05:29.138Z,79.5
2023-05-04T00:06:34.417Z,79.5
2023-05-04T00:07:40.693Z,79
2023-05-04T00:08:46.973Z,79.5
2023-05-04T00:09:53.234Z,79.5
2023-05-04T00:10:59.540Z,79.5
2023-05-04T00:12:05.787Z,79.5
2023-05-04T00:13:12.058Z,79.5
2023-05-04T00:14:18.365Z,79
2023-05-04T00:15:24.599Z,79.5
2023-05-04T00:16:30.872Z,79.5
2023-05-04T00:17:37.174Z,79.5
2023-05-04T00:18:43.461Z,80
2023-05-04T00:19:49.685Z,80
2023-05-04T00:20:54.971Z,79.5
2023-05-04T00:22:01.240Z,79.5
2023-05-04T00:23:07.537Z,79.5
2023-05-04T00:24:13.788Z,79.5
2023-05-04T00:25:20.071Z,79.5
2023-05-04T00:26:26.357Z,80
2023-05-04T00:27:32.607Z,80
2023-05-04T00:28:37.904Z,79.5
2023-05-04T00:29:43.185Z,80
2023-05-04T00:30:49.479Z,80
2023-05-04T00:31:55.751Z,80
2023-05-04T00:33:01.042Z,80.5
2023-05-04T00:34:06.323Z,80
2023-05-04T00:35:12.594Z,80
2023-05-04T00:36:18.867Z,80
2023-05-04T00:37:25.171Z,80
2023-05-04T00:38:31.439Z,80
2023-05-04T00:39:37.683Z,80
2023-05-04T00:40:43.947Z,80
2023-05-04T00:41:50.223Z,80
2023-05-04T00:42:56.501Z,80
2023-05-04T00:44:02.777Z,80.5
2023-05-04T00:45:09.050Z,80
2023-05-04T00:46:15.358Z,80
2023-05-04T00:47:21.586Z,80.5
2023-05-04T00:48:26.887Z,80.5
2023-05-04T00:49:33.149Z,80.5
2023-05-04T00:50:39.448Z,80.5
2023-05-04T00:51:45.694Z,80.5
2023-05-04T00:52:51.967Z,80
2023-05-04T00:53:58.276Z,80.5
2023-05-04T00:55:04.509Z,80.5
2023-05-04T00:56:09.806Z,80.5
2023-05-04T00:57:15.091Z,80.5
2023-05-04T00:58:20.405Z,81
2023-05-04T00:59:25.683Z,80.5
2023-05-04T01:00:31.965Z,80.5
2023-05-04T01:01:38.228Z,80.5
2023-05-04T01:02:44.493Z,80.5
2023-05-04T01:03:50.789Z,81
2023-05-04T01:04:57.046Z,80.5
2023-05-04T01:06:03.311Z,80.5
2023-05-04T01:07:09.581Z,81
2023-05-04T01:08:15.871Z,81
2023-05-04T01:09:22.135Z,80.5
2023-05-04T01:10:28.398Z,80.5
2023-05-04T01:11:34.669Z,80.5
2023-05-04T01:12:40.955Z,80.5
2023-05-04T01:13:46.233Z,80.5
2023-05-04T01:14:52.504Z,80.5
2023-05-04T01:15:58.773Z,80.5
2023-05-04T01:17:05.059Z,80.5
2023-05-04T01:18:11.320Z,80.5
2023-05-04T01:19:17.595Z,80.5
2023-05-04T01:20:23.868Z,80.5
2023-05-04T01:21:29.163Z,80.5
2023-05-04T01:22:34.462Z,80.5
2023-05-04T01:23:40.720Z,80.5
2023-05-04T01:24:46.019Z,80.5
2023-05-04T01:25:51.321Z,80.5
2023-05-04T01:26:57.586Z,81
2023-05-04T01:28:03.855Z,81
2023-05-04T01:29:10.121Z,80.5
2023-05-04T01:30:16.388Z,80.5
2023-05-04T01:31:22.672Z,80.5
2023-05-04T01:32:28.952Z,81
2023-05-04T01:33:35.213Z,81
2023-05-04T01:34:41.484Z,81
2023-05-04T01:35:47.761Z,81
2023-05-04T01:36:54.026Z,80.5
2023-05-04T01:38:00.300Z,81
2023-05-04T01:39:06.574Z,81
2023-05-04T01:40:11.857Z,81
2023-05-04T01:41:18.131Z,81
2023-05-04T01:42:24.425Z,81
2023-05-04T01:43:30.706Z,80.5
2023-05-04T01:44:36.952Z,81
2023-05-04T01:45:43.222Z,81
2023-05-04T01:46:49.496Z,81
2023-05-04T01:47:54.807Z,81
2023-05-04T01:49:00.081Z,81
2023-05-04T01:50:06.343Z,81
2023-05-04T01:51:11.653Z,81
2023-05-04T01:52:16.941Z,81
2023-05-04T01:53:23.224Z,81
2023-05-04T01:54:29.478Z,81
2023-05-04T01:55:35.778Z,81
2023-05-04T01:56:42.032Z,81
2023-05-04T01:57:48.297Z,81
2023-05-04T01:58:54.570Z,81
2023-05-04T02:00:00.823Z,81
2023-05-04T02:01:07.101Z,81
2023-05-04T02:02:13.389Z,81
2023-05-04T02:03:19.649Z,81
2023-05-04T02:04:25.955Z,81
2023-05-04T02:05:32.194Z,81
2023-05-04T02:06:37.486Z,81
2023-05-04T02:07:43.763Z,81
2023-05-04T02:08:50.033Z,81
2023-05-04T02:09:56.313Z,81
2023-05-04T02:11:02.577Z,81
2023-05-04T02:12:08.849Z,81
2023-05-04T02:13:15.114Z,81.5
2023-05-04T02:14:20.424Z,81.5
2023-05-04T02:15:25.707Z,81.5
2023-05-04T02:16:31.979Z,81.5
2023-05-04T02:17:38.253Z,81.5
2023-05-04T02:18:44.522Z,81.5
2023-05-04T02:19:50.802Z,81.5
2023-05-04T02:20:57.068Z,81.5
2023-05-04T02:22:03.384Z,81.5
2023-05-04T02:23:09.615Z,81.5
2023-05-04T02:24:15.882Z,81.5
2023-05-04T02:25:22.155Z,81.5
2023-05-04T02:26:28.442Z,81.5
2023-05-04T02:27:34.698Z,81.5
2023-05-04T02:28:40.970Z,81.5
2023-05-04T02:29:46.255Z,81.5
2023-05-04T02:30:52.533Z,81.5
2023-05-04T02:31:58.814Z,81.5
2023-05-04T02:33:05.076Z,81.5
2023-05-04T02:34:11.361Z,81
2023-05-04T02:35:17.629Z,81.5
2023-05-04T02:36:23.904Z,81.5
2023-05-04T02:37:29.194Z,81
2023-05-04T02:38:34.490Z,81
2023-05-04T02:39:39.788Z,81
2023-05-04T02:40:45.069Z,81
2023-05-04T02:41:51.337Z,81
2023-05-04T02:42:57.611Z,81
2023-05-04T02:44:03.886Z,81
2023-05-04T02:45:10.155Z,81
2023-05-04T02:46:16.430Z,81
2023-05-04T02:47:22.714Z,81
2023-05-04T02:48:28.986Z,81.5
2023-05-04T02:49:35.250Z,81.5
2023-05-04T02:50:41.520Z,81
2023-05-04T02:51:47.814Z,81
2023-05-04T02:52:54.062Z,81
2023-05-04T02:54:00.344Z,81
2023-05-04T02:55:05.637Z,81.5
2023-05-04T02:56:11.905Z,81.5
2023-05-04T02:57:18.171Z,81.5
2023-05-04T02:58:24.430Z,81.5
2023-05-04T02:59:30.727Z,81.5
2023-05-04T03:00:36.994Z,82
2023-05-04T03:01:43.265Z,82
2023-05-04T03:02:48.549Z,82
2023-05-04T03:03:53.848Z,82
2023-05-04T03:05:00.179Z,82
2023-05-04T03:06:05.413Z,82
2023-05-04T03:07:10.723Z,82
2023-05-04T03:08:16.990Z,82
2023-05-04T03:09:23.240Z,82.5
2023-05-04T03:10:29.517Z,82.5
2023-05-04T03:11:35.828Z,82.5
2023-05-04T03:12:42.056Z,82.5
2023-05-04T03:13:48.339Z,82.5
2023-05-04T03:14:54.605Z,82.5
2023-05-04T03:16:00.890Z,82
2023-05-04T03:17:07.147Z,82.5
2023-05-04T03:18:13.427Z,82.5
2023-05-04T03:19:19.688Z,82.5
2023-05-04T03:20:25.981Z,82.5
2023-05-04T03:21:31.256Z,82
2023-05-04T03:22:37.523Z,82.5
2023-05-04T03:23:43.798Z,82.5
2023-05-04T03:24:50.066Z,82.5
2023-05-04T03:25:55.362Z,82.5
2023-05-04T03:27:01.659Z,82.5
2023-05-04T03:28:07.913Z,82.5
2023-05-04T03:29:13.200Z,82.5
2023-05-04T03:30:18.493Z,82.5
2023-05-04T03:31:23.790Z,82.5
2023-05-04T03:32:29.094Z,83
2023-05-04T03:33:35.352Z,83
2023-05-04T03:34:41.620Z,83
2023-05-04T03:35:47.905Z,83
2023-05-04T03:36:54.172Z,83
2023-05-04T03:38:00.443Z,83
2023-05-04T03:39:06.713Z,83
2023-05-04T03:40:12.987Z,83
2023-05-04T03:41:19.263Z,83.5
2023-05-04T03:42:25.537Z,83
2023-05-04T03:43:31.797Z,83
2023-05-04T03:44:38.073Z,83.5
2023-05-04T03:45:44.349Z,83.5
2023-05-04T03:46:49.644Z,83.5
2023-05-04T03:47:55.909Z,83.5
2023-05-04T03:49:02.196Z,83.5
2023-05-04T03:50:08.471Z,83.5
2023-05-04T03:51:14.726Z,83.5
2023-05-04T03:52:20.996Z,83.5
2023-05-04T03:53:27.277Z,83.5
2023-05-04T03:54:32.565Z,83.5
2023-05-04T03:55:37.852Z,84
2023-05-04T03:56:44.124Z,84
2023-05-04T03:57:50.415Z,83.5
2023-05-04T03:58:56.664Z,84
2023-05-04T04:00:02.949Z,84
2023-05-04T04:01:09.217Z,84
2023-05-04T04:02:15.481Z,84
2023-05-04T04:03:21.763Z,84
2023-05-04T04:04:28.034Z,84
2023-05-04T04:05:34.309Z,84
2023-05-04T04:06:40.608Z,84
2023-05-04T04:07:46.863Z,84.5
2023-05-04T04:08:53.121Z,84
2023-05-04T04:09:58.396Z,84
2023-05-04T04:11:04.713Z,84.5
2023-05-04T04:12:10.985Z,84.5
2023-05-04T04:13:17.218Z,84.5
2023-05-04T04:14:23.492Z,84.5
2023-05-04T04:15:29.758Z,84.5
2023-05-04T04:16:36.052Z,84.5
2023-05-04T04:17:41.341Z,84.5
2023-05-04T04:18:46.630Z,84.5
2023-05-04T04:19:51.927Z,84.5
2023-05-04T04:20:57.223Z,84.5
2023-05-04T04:22:02.564Z,84.5
2023-05-04T04:23:07.795Z,84.5
2023-05-04T04:24:14.073Z,84.5
2023-05-04T04:25:20.361Z,84.5
2023-05-04T04:26:26.617Z,84.5
2023-05-04T04:27:32.886Z,84.5
2023-05-04T04:28:39.172Z,84.5
2023-05-04T04:29:45.434Z,84.5
2023-05-04T04:30:51.696Z,84
2023-05-04T04:31:58.021Z,84
2023-05-04T04:33:04.255Z,84
2023-05-04T04:34:10.519Z,84
2023-05-04T04:35:16.788Z,84
2023-05-04T04:36:23.058Z,84.5
2023-05-04T04:37:28.346Z,84.5
2023-05-04T04:38:34.623Z,84.5
2023-05-04T04:39:40.931Z,84.5
2023-05-04T04:40:47.162Z,84.5
2023-05-04T04:41:53.437Z,84.5
2023-05-04T04:42:59.724Z,84.5
2023-05-04T04:44:05.979Z,84.5
2023-05-04T04:45:11.279Z,85
2023-05-04T04:46:16.573Z,85
2023-05-04T04:47:21.890Z,84.5
2023-05-04T04:48:27.158Z,84.5
2023-05-04T04:49:33.427Z,84.5
2023-05-04T04:50:39.716Z,84.5
2023-05-04T04:51:45.999Z,84.5
2023-05-04T04:52:52.248Z,84.5
2023-05-04T04:53:58.509Z,84.5
2023-05-04T04:55:04.801Z,84.5
2023-05-04T04:56:11.066Z,84.5
2023-05-04T04:57:17.331Z,84.5
2023-05-04T04:58:23.599Z,84.5
2023-05-04T04:59:29.874Z,84.5
2023-05-04T05:00:36.145Z,84.5
2023-05-04T05:01:42.421Z,84
2023-05-04T05:02:47.705Z,84
2023-05-04T05:03:54.081Z,84.5
2023-05-04T05:05:00.248Z,84
2023-05-04T05:06:06.525Z,84.5
2023-05-04T05:07:12.861Z,84
2023-05-04T05:08:19.056Z,84.5
2023-05-04T05:09:25.328Z,84.5
2023-05-04T05:10:30.715Z,84.5
2023-05-04T05:11:36.017Z,84.5
2023-05-04T05:12:42.205Z,84.5
2023-05-04T05:13:48.468Z,85
2023-05-04T05:14:53.781Z,85
2023-05-04T05:15:59.075Z,85
2023-05-04T05:17:05.342Z,85
2023-05-04T05:18:11.663Z,85
2023-05-04T05:19:17.889Z,85
2023-05-04T05:20:24.165Z,85
2023-05-04T05:21:30.492Z,85
2023-05-04T05:22:36.678Z,85.5
2023-05-04T05:23:43.006Z,85.5
2023-05-04T05:24:49.233Z,85.5
2023-05-04T05:25:55.508Z,85.5
2023-05-04T05:27:01.775Z,85.5
2023-05-04T05:28:08.066Z,85
2023-05-04T05:29:14.317Z,85
2023-05-04T05:30:19.618Z,85
2023-05-04T05:31:25.899Z,84.5
2023-05-04T05:32:32.149Z,84
2023-05-04T05:33:38.431Z,83.5
2023-05-04T05:34:44.685Z,82.5
2023-05-04T05:35:50.964Z,82.5
2023-05-04T05:36:57.352Z,82.5
2023-05-04T05:38:02.537Z,82.5
2023-05-04T05:39:07.831Z,82
2023-05-04T05:40:13.127Z,82
2023-05-04T05:41:18.426Z,82
2023-05-04T05:42:24.687Z,82.5
2023-05-04T05:43:30.959Z,82.5
2023-05-04T05:44:37.253Z,83
2023-05-04T05:45:43.518Z,83
2023-05-04T05:46:49.792Z,83
2023-05-04T05:47:56.051Z,82.5
2023-05-04T05:49:02.311Z,82.5
2023-05-04T05:50:08.589Z,83
2023-05-04T05:51:14.869Z,83
2023-05-04T05:52:21.155Z,83
2023-05-04T05:53:27.405Z,83
2023-05-04T05:54:33.722Z,83
2023-05-04T05:55:38.968Z,83
2023-05-04T05:56:45.233Z,83
2023-05-04T05:57:51.502Z,83
2023-05-04T05:58:57.782Z,83
2023-05-04T06:00:04.052Z,83
2023-05-04T06:01:10.314Z,83
2023-05-04T06:02:16.642Z,83
2023-05-04T06:03:21.912Z,83
2023-05-04T06:04:28.336Z,83
2023-05-04T06:05:33.584Z,83.5
2023-05-04T06:06:38.749Z,83
2023-05-04T06:07:45.068Z,83
2023-05-04T06:08:51.373Z,83
2023-05-04T06:09:57.700Z,83
2023-05-04T06:11:03.854Z,83
2023-05-04T06:12:10.119Z,82.5
2023-05-04T06:13:16.424Z,82.5
2023-05-04T06:14:22.741Z,82
2023-05-04T06:15:28.998Z,82
2023-05-04T06:16:35.210Z,81.5
2023-05-04T06:18:47.757Z,81
2023-05-04T06:19:54.051Z,81
2023-05-04T06:20:59.421Z,81
2023-05-04T06:22:05.595Z,81
2023-05-04T06:23:11.851Z,81
2023-05-04T06:24:18.168Z,81
2023-05-04T06:25:24.418Z,81.5
2023-05-04T06:26:30.668Z,81
2023-05-04T06:27:36.975Z,80.5
2023-05-04T06:28:43.395Z,80.5
2023-05-04T06:29:49.515Z,80
2023-05-04T06:30:54.911Z,80
2023-05-04T06:32:00.140Z,79.5
2023-05-04T06:33:06.487Z,79.5
2023-05-04T06:35:19.096Z,80
2023-05-04T06:36:25.294Z,80
2023-05-04T06:37:31.461Z,79.5
2023-05-04T06:38:36.720Z,79.5
2023-05-04T06:39:42.011Z,79
2023-05-04T06:40:48.304Z,79
2023-05-04T06:41:54.562Z,79.5
2023-05-04T06:43:00.828Z,80
2023-05-04T06:44:07.128Z,80
2023-05-04T06:45:13.376Z,80
2023-05-04T06:46:19.648Z,80
2023-05-04T06:47:25.909Z,80
2023-05-04T06:48:32.218Z,80.5
2023-05-04T06:49:38.469Z,80
2023-05-04T06:50:44.739Z,80
2023-05-04T06:51:51.035Z,80
2023-05-04T06:52:57.312Z,80
2023-05-04T06:54:03.550Z,80
2023-05-04T06:55:08.836Z,80.5
2023-05-04T06:56:15.097Z,80
2023-05-04T06:57:21.380Z,80
2023-05-04T06:58:27.680Z,80
2023-05-04T06:59:33.926Z,80
2023-05-04T07:00:40.220Z,79.5
2023-05-04T07:01:45.503Z,80
2023-05-04T07:02:50.791Z,80
2023-05-04T07:03:56.085Z,80
2023-05-04T07:05:01.372Z,79.5
2023-05-04T07:06:07.645Z,79.5
2023-05-04T07:07:12.956Z,79.5
2023-05-04T07:08:19.236Z,79.5
2023-05-04T07:09:25.483Z,79
2023-05-04T07:10:31.755Z,79.5
2023-05-04T07:11:38.020Z,79
2023-05-04T07:12:44.300Z,79.5
2023-05-04T07:13:50.570Z,79
2023-05-04T07:14:56.838Z,80
2023-05-04T07:16:03.121Z,79
2023-05-04T07:17:09.414Z,79
2023-05-04T07:18:15.655Z,79
2023-05-04T07:19:21.932Z,79
2023-05-04T07:20:28.197Z,79
2023-05-04T07:21:33.514Z,79.5
2023-05-04T07:22:39.792Z,79
2023-05-04T07:23:46.037Z,79
2023-05-04T07:24:52.400Z,79
2023-05-04T07:25:58.568Z,79
2023-05-04T07:27:04.845Z,79
2023-05-04T07:28:11.123Z,78.5
2023-05-04T07:29:17.388Z,79
2023-05-04T07:30:23.659Z,78.5
2023-05-04T07:31:29.940Z,81
2023-05-04T07:32:36.201Z,79.5
2023-05-04T07:33:41.497Z,78.5
2023-05-04T07:34:46.782Z,78.5
2023-05-04T07:35:53.057Z,78.5
2023-05-04T07:36:59.335Z,78.5
2023-05-04T07:38:05.630Z,78
2023-05-04T07:39:10.904Z,78
2023-05-04T07:40:16.185Z,78
2023-05-04T07:41:22.458Z,78
2023-05-04T07:42:28.753Z,78
2023-05-04T07:43:35.014Z,78
2023-05-04T07:44:41.272Z,79
2023-05-04T07:45:47.548Z,78.5
2023-05-04T07:46:53.815Z,78.5
2023-05-04T07:48:00.085Z,77.5
2023-05-04T07:49:06.383Z,78.5
2023-05-04T07:50:12.638Z,78
2023-05-04T07:51:18.902Z,77.5
2023-05-04T07:52:25.179Z,77.5
2023-05-04T07:53:31.454Z,78
2023-05-04T07:54:36.749Z,77.5
2023-05-04T07:55:43.015Z,77.5
2023-05-04T07:56:49.281Z,77.5
2023-05-04T07:57:55.568Z,78
2023-05-04T07:59:01.824Z,76.5
2023-05-04T08:00:08.108Z,77
2023-05-04T08:01:14.373Z,77.5
2023-05-04T08:02:20.641Z,77
2023-05-04T08:03:26.931Z,77.5
2023-05-04T08:04:33.187Z,77
2023-05-04T08:05:39.457Z,78
2023-05-04T08:06:45.729Z,77
2023-05-04T08:07:52.008Z,76.5
2023-05-04T08:08:57.288Z,77
2023-05-04T08:10:03.562Z,76.5
2023-05-04T08:11:09.836Z,76
2023-05-04T08:12:16.102Z,76
2023-05-04T08:14:28.650Z,77
2023-05-04T08:15:34.919Z,76.5
2023-05-04T08:16:41.201Z,77
2023-05-04T08:17:47.463Z,77.5
2023-05-04T08:18:53.759Z,76
2023-05-04T08:20:00.002Z,76
2023-05-04T08:21:06.363Z,76
2023-05-04T08:22:12.549Z,76
2023-05-04T08:23:17.882Z,76
2023-05-04T08:24:24.114Z,75.5
2023-05-04T08:25:30.384Z,75.5
2023-05-04T08:26:36.650Z,75.5
2023-05-04T08:27:42.929Z,75.5
2023-05-04T08:28:49.220Z,73.5
2023-05-04T08:29:55.467Z,73.5
2023-05-04T08:31:01.748Z,72.5
2023-05-04T08:32:08.024Z,72
2023-05-04T08:33:14.293Z,73
2023-05-04T08:34:20.563Z,73.5
2023-05-04T08:35:26.831Z,74.5
2023-05-04T08:36:33.178Z,73
2023-05-04T08:37:38.622Z,73
2023-05-04T08:38:44.714Z,73
2023-05-04T08:39:51.010Z,73.5
2023-05-04T08:40:57.202Z,73.5
2023-05-04T08:42:03.483Z,72.5
2023-05-04T08:43:09.738Z,72.5
2023-05-04T08:44:16.023Z,73
2023-05-04T08:45:22.287Z,72.5
2023-05-04T08:46:28.575Z,71.5
2023-05-04T08:47:34.824Z,71.5
2023-05-04T08:48:41.117Z,71
2023-05-04T08:49:47.369Z,71.5
2023-05-04T08:50:53.655Z,70.5
2023-05-04T08:51:58.941Z,71
2023-05-04T08:53:05.220Z,72
2023-05-04T08:54:11.496Z,72
2023-05-04T08:55:17.776Z,73
2023-05-04T08:56:24.035Z,72.5
2023-05-04T08:57:30.292Z,72
2023-05-04T08:58:36.602Z,70
2023-05-04T08:59:42.870Z,71.5
2023-05-04T09:00:49.125Z,70
2023-05-04T09:01:55.383Z,69
2023-05-04T09:03:01.676Z,69.5
2023-05-04T09:04:07.937Z,67
2023-05-04T09:05:14.212Z,67.5
2023-05-04T09:06:19.513Z,66.5
2023-05-04T09:07:25.788Z,66.5
2023-05-04T09:08:32.046Z,65.5
2023-05-04T09:09:38.305Z,68
2023-05-04T09:10:44.600Z,66.5
2023-05-04T09:11:50.845Z,64.5
2023-05-04T09:12:57.151Z,65
2023-05-04T09:14:03.396Z,64.5
2023-05-04T09:15:09.662Z,65.5
2023-05-04T09:16:15.965Z,65
2023-05-04T09:17:22.206Z,62.5
2023-05-04T09:18:28.479Z,62.5
2023-05-04T09:19:34.736Z,61
2023-05-04T09:20:40.053Z,63
2023-05-04T09:21:46.328Z,62
2023-05-04T09:22:52.574Z,62.5
2023-05-04T09:23:58.884Z,61.5
2023-05-04T09:25:05.138Z,61
2023-05-04T09:26:11.393Z,63
2023-05-04T09:27:17.680Z,60
2023-05-04T09:28:23.941Z,60
2023-05-04T09:29:30.204Z,59
2023-05-04T09:30:36.481Z,60
2023-05-04T09:31:42.750Z,59.5
2023-05-04T09:32:49.053Z,58
2023-05-04T09:33:55.301Z,57.5
2023-05-04T09:35:00.577Z,58.5
2023-05-04T09:37:13.126Z,59
2023-05-04T09:38:19.417Z,58
2023-05-04T09:39:25.671Z,54.5
2023-05-04T09:40:31.946Z,56.5
2023-05-04T09:41:38.221Z,56
2023-05-04T09:42:44.492Z,54
2023-05-04T09:43:50.759Z,54.5
2023-05-04T09:44:57.022Z,56.5
2023-05-04T09:46:03.299Z,54
2023-05-04T09:47:09.577Z,53
2023-05-04T09:48:15.850Z,54.5
2023-05-04T09:49:21.139Z,54
2023-05-04T09:50:27.414Z,54.5
2023-05-04T09:51:33.668Z,51
2023-05-04T09:53:46.220Z,52
2023-05-04T09:54:52.506Z,50.5
2023-05-04T09:55:58.763Z,52
2023-05-04T09:57:05.039Z,49
2023-05-04T09:58:11.303Z,52
2023-05-04T09:59:17.585Z,51
2023-05-04T10:00:23.857Z,51.5
2023-05-04T10:01:30.126Z,49.5
2023-05-04T10:02:36.403Z,49.5
2023-05-04T10:03:41.684Z,50
2023-05-04T10:04:47.951Z,50.5
2023-05-04T10:05:54.229Z,50
2023-05-04T10:07:00.494Z,48
2023-05-04T10:08:06.772Z,49
2023-05-04T10:09:13.062Z,49.5
2023-05-04T10:10:19.332Z,51.5
2023-05-04T10:11:25.619Z,47
2023-05-04T10:12:31.888Z,47
2023-05-04T10:13:38.130Z,49
2023-05-04T10:14:44.404Z,50.5
2023-05-04T10:15:50.673Z,47
2023-05-04T10:16:56.944Z,47.5
2023-05-04T10:18:03.221Z,48.5
2023-05-04T10:19:08.513Z,45.5
2023-05-04T10:20:14.774Z,46
2023-05-04T10:21:21.053Z,45.5
2023-05-04T10:22:27.319Z,44.5
2023-05-04T10:23:33.608Z,46
2023-05-04T10:24:39.871Z,45
2023-05-04T10:25:46.145Z,50.5
2023-05-04T10:26:52.408Z,47
2023-05-04T10:27:58.733Z,46
2023-05-04T10:29:05.025Z,44
2023-05-04T10:30:11.222Z,44
2023-05-04T10:31:17.519Z,43.5
2023-05-04T10:32:23.769Z,44.5
2023-05-04T10:33:30.107Z,44
2023-05-04T10:34:35.345Z,47.5
2023-05-04T10:35:41.605Z,43
2023-05-04T10:36:47.871Z,42
2023-05-04T10:37:54.156Z,43.5
2023-05-04T10:39:00.413Z,44.5
2023-05-04T10:40:06.693Z,45
2023-05-04T10:41:12.971Z,44.5
2023-05-04T10:43:25.514Z,45.5
2023-05-04T10:44:31.783Z,42
2023-05-04T10:45:38.051Z,44.5
2023-05-04T10:46:44.373Z,43
2023-05-04T10:47:50.693Z,43.5
2023-05-04T10:48:56.895Z,43.5
2023-05-04T10:50:02.182Z,42.5
2023-05-04T10:51:08.446Z,44.5
2023-05-04T10:52:14.798Z,43
2023-05-04T10:53:20.975Z,43.5
2023-05-04T10:54:27.258Z,43.5
2023-05-04T10:55:33.548Z,44
2023-05-04T10:56:39.796Z,44
2023-05-04T10:57:46.076Z,43.5
2023-05-04T10:58:52.342Z,43.5
2023-05-04T10:59:58.617Z,42
2023-05-04T11:01:04.894Z,42.5
2023-05-04T11:02:11.157Z,45.5
2023-05-04T11:03:16.453Z,40.5
2023-05-04T11:04:21.754Z,42.5
2023-05-04T11:05:28.015Z,41
2023-05-04T11:06:33.340Z,42
2023-05-04T11:07:38.610Z,45.5
2023-05-04T11:08:44.873Z,44.5
2023-05-04T11:09:51.144Z,44
2023-05-04T11:10:57.415Z,42.5
2023-05-04T11:12:03.799Z,42
2023-05-04T11:13:09.963Z,42.5
2023-05-04T11:14:16.232Z,44
2023-05-04T11:15:22.510Z,42.5
2023-05-04T11:16:28.781Z,41.5
2023-05-04T11:17:35.060Z,40.5
2023-05-04T11:18:41.333Z,43
2023-05-04T11:19:47.603Z,42
2023-05-04T11:20:53.865Z,41
2023-05-04T11:21:59.214Z,40
2023-05-04T11:23:05.434Z,41.5
2023-05-04T11:24:11.807Z,42.5
2023-05-04T11:25:18.125Z,43
2023-05-04T11:26:24.244Z,40
2023-05-04T11:27:30.587Z,38.5
2023-05-04T11:28:36.876Z,40
2023-05-04T11:29:42.084Z,39.5
2023-05-04T11:30:47.511Z,41
2023-05-04T11:31:52.835Z,43
2023-05-04T11:32:57.953Z,39.5
2023-05-04T11:34:04.260Z,42
2023-05-04T11:35:10.506Z,41.5
2023-05-04T11:36:16.774Z,40.5
2023-05-04T11:37:23.047Z,40.5
2023-05-04T11:38:29.319Z,40
2023-05-04T11:39:35.606Z,41
2023-05-04T11:40:41.856Z,43
2023-05-04T11:41:48.137Z,40.5
2023-05-04T11:42:54.429Z,42
2023-05-04T11:44:00.685Z,40.5
2023-05-04T11:45:06.947Z,40.5
2023-05-04T11:46:13.224Z,42.5
2023-05-04T11:47:18.505Z,41
2023-05-04T11:48:24.825Z,39.5
2023-05-04T11:49:31.104Z,43
2023-05-04T11:50:37.340Z,39.5
2023-05-04T11:51:43.711Z,41.5
2023-05-04T11:52:49.879Z,40.5
2023-05-04T11:53:56.147Z,40.5
2023-05-04T11:55:01.454Z,41
2023-05-04T11:56:07.716Z,39.5
2023-05-04T11:57:13.020Z,44
2023-05-04T11:58:18.302Z,41
2023-05-04T11:59:24.572Z,39
2023-05-04T12:00:30.853Z,39.5
2023-05-04T12:01:37.120Z,39
2023-05-04T12:02:43.392Z,38.5
2023-05-04T12:03:49.663Z,41.5
2023-05-04T12:04:55.927Z,39.5
2023-05-04T12:06:02.208Z,38
2023-05-04T12:07:08.485Z,38.5
2023-05-04T12:08:14.752Z,39.5
2023-05-04T12:09:21.025Z,38
2023-05-04T12:10:27.293Z,38
2023-05-04T12:11:33.652Z,40
2023-05-04T12:12:38.855Z,39
2023-05-04T12:13:45.140Z,41.5
2023-05-04T12:14:51.398Z,39.5
2023-05-04T12:15:57.669Z,42
2023-05-04T12:17:03.941Z,37.5
2023-05-04T12:18:10.215Z,37.5
2023-05-04T12:19:16.482Z,38
2023-05-04T12:20:22.763Z,36.5
2023-05-04T12:21:28.055Z,38.5
2023-05-04T12:22:33.401Z,41
2023-05-04T12:23:38.655Z,39.5
2023-05-04T12:24:43.963Z,38
2023-05-04T12:25:50.200Z,37.5
2023-05-04T12:26:56.519Z,39
2023-05-04T12:28:02.747Z,37
2023-05-04T12:29:09.024Z,37.5
2023-05-04T12:30:15.298Z,36.5
2023-05-04T12:31:21.564Z,36.5
2023-05-04T12:32:27.841Z,41.5
2023-05-04T12:33:34.113Z,36
2023-05-04T12:34:40.380Z,39
2023-05-04T12:35:46.657Z,38
2023-05-04T12:36:52.925Z,37.5
2023-05-04T12:37:59.213Z,37.5
2023-05-04T12:39:04.509Z,36.5
2023-05-04T12:40:10.763Z,36.5
2023-05-04T12:41:17.028Z,36
2023-05-04T12:42:23.302Z,37
2023-05-04T12:43:29.586Z,36
2023-05-04T12:44:35.846Z,35.5
2023-05-04T12:45:42.119Z,35.5
2023-05-04T12:46:47.420Z,36.5
2023-05-04T12:47:52.704Z,35.5
2023-05-04T12:48:58.983Z,36
2023-05-04T12:50:04.347Z,40
2023-05-04T12:51:09.652Z,35
2023-05-04T12:52:15.897Z,35
2023-05-04T12:53:22.204Z,34.5
2023-05-04T12:54:28.399Z,35
2023-05-04T12:55:34.659Z,34
2023-05-04T12:56:40.940Z,34.5
2023-05-04T12:57:47.208Z,35.5
2023-05-04T12:58:53.479Z,36
2023-05-04T12:59:59.757Z,36.5
2023-05-04T13:01:06.031Z,37
2023-05-04T13:02:12.294Z,37.5
2023-05-04T13:03:18.571Z,36
2023-05-04T13:04:24.859Z,37.5
2023-05-04T13:05:30.133Z,35.5
2023-05-04T13:06:36.413Z,36
2023-05-04T13:07:42.681Z,36.5
2023-05-04T13:08:48.955Z,37
2023-05-04T13:09:55.228Z,36.5
2023-05-04T13:11:01.497Z,35.5
2023-05-04T13:12:07.776Z,39
2023-05-04T13:13:13.074Z,36
2023-05-04T13:14:18.361Z,35
2023-05-04T13:15:23.663Z,34
2023-05-04T13:16:28.951Z,35
2023-05-04T13:17:35.274Z,37.5
2023-05-04T13:18:41.494Z,38.5
2023-05-04T13:19:47.762Z,36.5
2023-05-04T13:20:54.042Z,35.5
2023-05-04T13:22:00.325Z,36
2023-05-04T13:23:06.582Z,36.5
2023-05-04T13:24:12.866Z,36
2023-05-04T13:25:19.121Z,36
2023-05-04T13:26:25.402Z,35.5
2023-05-04T13:28:37.944Z,35.5
2023-05-04T13:29:44.245Z,36.5
2023-05-04T13:30:49.509Z,35.5
2023-05-04T13:31:55.806Z,35.5
2023-05-04T13:33:02.059Z,34.5
2023-05-04T13:34:08.361Z,34
2023-05-04T13:35:14.602Z,33
2023-05-04T13:36:20.874Z,33
2023-05-04T13:37:27.193Z,34
2023-05-04T13:38:33.418Z,33.5
2023-05-04T13:39:38.719Z,36
2023-05-04T13:40:44.003Z,33
2023-05-04T13:41:50.305Z,33
2023-05-04T13:42:55.585Z,34
2023-05-04T13:44:00.876Z,33.5
2023-05-04T13:45:07.147Z,33.5
2023-05-04T13:46:13.455Z,33
2023-05-04T13:47:19.686Z,35
2023-05-04T13:48:25.955Z,34.5
2023-05-04T13:49:32.233Z,33
2023-05-04T13:50:38.513Z,33.5
2023-05-04T13:51:44.778Z,34
2023-05-04T13:52:51.048Z,32
2023-05-04T13:53:57.392Z,34
2023-05-04T13:55:03.651Z,35
2023-05-04T13:56:09.894Z,34
2023-05-04T13:57:16.156Z,33
2023-05-04T13:58:21.432Z,32.5
2023-05-04T13:59:27.744Z,37
2023-05-04T14:00:33.966Z,33.5
2023-05-04T14:01:40.251Z,33
2023-05-04T14:02:46.535Z,33.5
2023-05-04T14:03:52.795Z,33.5
2023-05-04T14:04:59.060Z,34.5
2023-05-04T14:06:04.375Z,34.5
2023-05-04T14:07:09.653Z,33
2023-05-04T14:08:15.932Z,32.5
2023-05-04T14:09:21.230Z,33.5
2023-05-04T14:10:26.512Z,31.5
2023-05-04T14:11:32.812Z,31.5
2023-05-04T14:12:39.054Z,33
2023-05-04T14:13:45.413Z,34
2023-05-04T14:14:51.599Z,35
2023-05-04T14:15:57.867Z,34
2023-05-04T14:17:04.151Z,34
2023-05-04T14:18:10.416Z,33.5
2023-05-04T14:19:16.688Z,33
2023-05-04T14:20:22.958Z,34
2023-05-04T14:21:29.244Z,33
2023-05-04T14:22:35.511Z,32.5
2023-05-04T14:23:41.773Z,33
2023-05-04T14:24:47.068Z,32.5
2023-05-04T14:25:53.343Z,32.5
2023-05-04T14:26:59.610Z,33
2023-05-04T14:28:05.894Z,33.5
2023-05-04T14:29:12.226Z,34.5
2023-05-04T14:30:18.428Z,35
2023-05-04T14:31:23.724Z,34.5
2023-05-04T14:32:29.074Z,34.5
2023-05-04T14:33:34.316Z,35.5
2023-05-04T14:34:40.628Z,34
2023-05-04T14:35:45.913Z,33.5
2023-05-04T14:36:51.195Z,34.5
2023-05-04T14:37:57.471Z,34.5
2023-05-04T14:39:03.779Z,35
2023-05-04T14:40:10.003Z,36.5
2023-05-04T14:41:16.285Z,34.5
2023-05-04T14:42:22.534Z,34
2023-05-04T14:43:28.809Z,34.5
2023-05-04T14:44:35.071Z,35.5
2023-05-04T14:45:41.343Z,35
2023-05-04T14:46:47.619Z,34.5
2023-05-04T14:47:53.893Z,34.5
2023-05-04T14:49:00.190Z,34.5
2023-05-04T14:50:06.457Z,36
2023-05-04T14:51:11.753Z,36.5
2023-05-04T14:52:18.000Z,36
2023-05-04T14:53:24.273Z,38.5
2023-05-04T14:54:30.532Z,37.5
2023-05-04T14:55:36.809Z,36
2023-05-04T14:56:43.140Z,36
2023-05-04T14:57:49.391Z,37
2023-05-04T14:58:54.676Z,36.5
2023-05-04T14:59:59.936Z,38
2023-05-04T15:01:06.217Z,40
2023-05-04T15:02:12.510Z,36.5
2023-05-04T15:03:18.753Z,38
2023-05-04T15:04:25.035Z,37.5
2023-05-04T15:05:31.302Z,38.5
2023-05-04T15:06:37.583Z,39
2023-05-04T15:07:43.842Z,39
2023-05-04T15:08:50.119Z,37.5
2023-05-04T15:09:56.463Z,38
2023-05-04T15:11:02.666Z,40
2023-05-04T15:12:08.930Z,37.5
2023-05-04T15:13:15.204Z,37.5
2023-05-04T15:14:20.493Z,40
2023-05-04T15:15:26.772Z,37.5
2023-05-04T15:16:33.105Z,37